Time;durP1;ratioP1;P1;durP2;ratioP2;P2;SDS_P1;SDS_P2;PMS_P1;PMS_P2;Temp;Humidity;BMP_temperature;BMP_pressure;BME280_temperature;BME280_humidity;BME280_pressure;Samples;Min_cycle;Max_cycle;Signal;HPM_P1;HPM_P2
2023/07/16 00:02:24;;;;;;;12.73;11.52;;;19.50;99.90;;;;;;4995276;28;20030;-58
2023/07/16 00:04:49;;;;;;;15.70;13.93;;;19.60;99.90;;;;;;4998397;28;20025;-58
2023/07/16 00:07:15;;;;;;;33.08;15.07;;;19.60;99.90;;;;;;4997449;28;20038;-57
2023/07/16 00:09:40;;;;;;;20.05;13.55;;;19.70;99.90;;;;;;4994701;28;20030;-59
2023/07/16 00:12:06;;;;;;;29.85;13.85;;;19.60;99.90;;;;;;4999478;28;20025;-58
2023/07/16 00:14:32;;;;;;;12.07;10.82;;;19.50;99.90;;;;;;4995400;28;20073;-58
2023/07/16 00:16:58;;;;;;;11.73;10.55;;;19.40;99.90;;;;;;4997016;28;20029;-60
2023/07/16 00:19:23;;;;;;;19.45;12.77;;;19.50;99.90;;;;;;4997872;28;20521;-58
2023/07/16 00:21:49;;;;;;;16.45;12.25;;;19.40;99.90;;;;;;4995272;28;20401;-58
2023/07/16 00:24:15;;;;;;;23.75;12.57;;;19.40;99.90;;;;;;4996041;28;20126;-58
2023/07/16 00:26:40;;;;;;;25.17;14.40;;;19.40;99.90;;;;;;4996349;28;20038;-57
2023/07/16 00:29:06;;;;;;;22.85;13.35;;;19.40;99.90;;;;;;4997642;28;20408;-58
2023/07/16 00:31:32;;;;;;;17.73;12.65;;;19.40;99.90;;;;;;4995602;28;20525;-58
2023/07/16 00:33:57;;;;;;;13.65;12.23;;;19.40;99.90;;;;;;4996506;28;20557;-57
2023/07/16 00:36:23;;;;;;;16.05;12.20;;;19.40;99.90;;;;;;4995639;28;20057;-58
2023/07/16 00:38:50;;;;;;;18.13;11.98;;;19.50;99.90;;;;;;4994472;28;20049;-59
2023/07/16 00:41:15;;;;;;;18.95;12.57;;;19.50;99.90;;;;;;4995064;28;20030;-58
2023/07/16 00:43:41;;;;;;;17.23;13.23;;;19.40;99.90;;;;;;4998308;28;20111;-58
2023/07/16 00:46:08;;;;;;;23.08;13.93;;;19.30;99.90;;;;;;4995256;28;20034;-58
2023/07/16 00:48:34;;;;;;;30.63;15.27;;;19.30;99.90;;;;;;4995632;28;20036;-59
2023/07/16 00:51:02;;;;;;;20.15;14.93;;;19.20;99.90;;;;;;4995240;28;20542;-57
2023/07/16 00:53:28;;;;;;;43.35;16.35;;;19.20;99.90;;;;;;4992479;28;20501;-58
2023/07/16 00:55:54;;;;;;;25.40;17.02;;;19.30;99.90;;;;;;4992452;28;20398;-58
2023/07/16 00:58:20;;;;;;;28.30;16.63;;;19.40;99.90;;;;;;4992987;28;20030;-58
2023/07/16 01:00:45;;;;;;;79.25;18.65;;;19.40;99.90;;;;;;4996125;28;20034;-58
2023/07/16 01:03:13;;;;;;;18.02;14.00;;;19.40;99.90;;;;;;4995547;28;20121;-56
2023/07/16 01:05:58;;;;;;;18.35;13.15;;;19.50;99.90;;;;;;4995868;28;20041;-58
2023/07/16 01:08:33;;;;;;;22.05;13.63;;;19.50;99.90;;;;;;4997963;28;20029;-58
2023/07/16 01:11:00;;;;;;;85.95;16.75;;;19.50;99.90;;;;;;4995322;28;20030;-59
2023/07/16 01:13:26;;;;;;;50.97;15.05;;;19.50;99.90;;;;;;4996409;28;20027;-58
2023/07/16 01:15:52;;;;;;;25.83;15.13;;;19.50;99.90;;;;;;4997101;28;20022;-58
2023/07/16 01:18:17;;;;;;;64.55;16.55;;;19.50;99.90;;;;;;4992642;28;20135;-59
2023/07/16 01:20:43;;;;;;;35.15;15.35;;;19.60;99.90;;;;;;4996032;28;20547;-58
2023/07/16 01:23:32;;;;;;;20.23;12.50;;;19.60;99.90;;;;;;4997177;28;20047;-59
2023/07/16 01:26:35;;;;;;;17.98;13.18;;;19.60;99.90;;;;;;4997025;28;20048;-59
2023/07/16 01:29:33;;;;;;;26.25;13.70;;;19.60;99.90;;;;;;5022853;28;20578;-60
2023/07/16 01:32:03;;;;;;;15.40;12.02;;;19.50;99.90;;;;;;4996153;28;20085;-59
2023/07/16 01:34:33;;;;;;;14.07;11.77;;;19.50;99.90;;;;;;4999159;28;20499;-58
2023/07/16 01:37:02;;;;;;;17.67;10.77;;;19.50;99.90;;;;;;4998012;28;20037;-58
2023/07/16 01:39:28;;;;;;;13.23;11.32;;;19.40;99.90;;;;;;4998198;28;20031;-59
2023/07/16 01:41:54;;;;;;;9.40;8.52;;;19.40;99.90;;;;;;4995453;28;20049;-59
2023/07/16 01:44:19;;;;;;;11.77;9.00;;;19.40;99.90;;;;;;4996813;28;20633;-59
2023/07/16 01:47:05;;;;;;;11.20;8.65;;;19.40;99.90;;;;;;4997305;28;20500;-60
2023/07/16 01:49:31;;;;;;;31.92;10.27;;;19.40;99.90;;;;;;4999122;28;20014;-60
2023/07/16 01:51:56;;;;;;;26.60;8.95;;;19.30;99.90;;;;;;5000157;28;20022;-58
2023/07/16 01:54:22;;;;;;;35.40;8.38;;;19.30;99.90;;;;;;4999671;28;20022;-59
2023/07/16 01:56:48;;;;;;;10.80;5.88;;;19.30;99.90;;;;;;5000520;28;20023;-59
2023/07/16 01:59:13;;;;;;;48.05;7.93;;;19.20;99.90;;;;;;4999693;28;20026;-58
2023/07/16 02:01:39;;;;;;;14.23;6.45;;;19.20;99.90;;;;;;4998820;28;20049;-59
2023/07/16 02:04:04;;;;;;;6.07;5.47;;;19.20;99.90;;;;;;4998218;28;20030;-59
2023/07/16 02:06:30;;;;;;;14.38;5.55;;;19.20;99.90;;;;;;4999125;28;20061;-59
2023/07/16 02:08:56;;;;;;;53.88;8.75;;;19.10;99.90;;;;;;5000991;28;20478;-58
2023/07/16 02:11:21;;;;;;;8.02;6.25;;;19.10;99.90;;;;;;4998227;28;20026;-59
2023/07/16 02:13:47;;;;;;;10.07;8.15;;;19.10;99.90;;;;;;5001417;28;20018;-58
2023/07/16 02:16:12;;;;;;;6.00;5.40;;;19.20;99.90;;;;;;4999959;28;20092;-59
2023/07/16 02:18:38;;;;;;;7.32;6.57;;;19.20;99.90;;;;;;4997949;28;20064;-59
2023/07/16 02:21:04;;;;;;;11.85;6.82;;;19.20;99.90;;;;;;4995198;28;20030;-59
2023/07/16 02:23:29;;;;;;;9.85;5.25;;;19.20;99.90;;;;;;4992344;28;20037;-59
2023/07/16 02:25:55;;;;;;;10.60;6.60;;;19.10;99.90;;;;;;4998790;28;20030;-58
2023/07/16 02:28:21;;;;;;;9.68;6.85;;;19.20;99.90;;;;;;5002664;28;20426;-59
2023/07/16 02:30:48;;;;;;;14.27;6.63;;;19.10;99.90;;;;;;4998030;28;20774;-58
2023/07/16 02:33:13;;;;;;;13.63;7.32;;;19.10;99.90;;;;;;5000017;28;20030;-59
2023/07/16 02:35:39;;;;;;;8.82;6.95;;;18.90;99.90;;;;;;5000718;28;20035;-59
2023/07/16 02:38:05;;;;;;;10.50;9.48;;;18.80;99.90;;;;;;4995311;28;20471;-58
2023/07/16 02:40:30;;;;;;;9.80;9.00;;;18.80;99.90;;;;;;4997825;28;20539;-60
2023/07/16 02:42:56;;;;;;;13.43;9.93;;;18.80;99.90;;;;;;4993892;28;20023;-59
2023/07/16 02:45:21;;;;;;;11.57;9.35;;;18.80;99.90;;;;;;4999137;28;20505;-59
2023/07/16 02:47:47;;;;;;;16.63;11.30;;;18.80;99.90;;;;;;4998028;28;20379;-59
2023/07/16 02:50:12;;;;;;;14.02;10.68;;;18.80;99.90;;;;;;4997088;28;20033;-59
2023/07/16 02:52:38;;;;;;;24.52;12.00;;;18.80;99.90;;;;;;4999386;28;20034;-57
2023/07/16 02:55:04;;;;;;;16.67;10.73;;;18.80;99.90;;;;;;4996794;28;20491;-59
2023/07/16 02:57:30;;;;;;;15.15;11.93;;;18.80;99.90;;;;;;4997914;28;20034;-59
2023/07/16 02:59:55;;;;;;;14.60;10.32;;;18.70;99.90;;;;;;4998304;28;20036;-59
2023/07/16 03:02:21;;;;;;;18.02;11.30;;;18.70;99.90;;;;;;4997812;28;20667;-57
2023/07/16 03:04:47;;;;;;;11.25;9.52;;;18.70;99.90;;;;;;4997860;28;20096;-58
2023/07/16 03:07:12;;;;;;;12.48;9.02;;;18.60;99.90;;;;;;4998314;28;20169;-58
2023/07/16 03:09:38;;;;;;;16.42;10.38;;;18.60;99.90;;;;;;4997163;28;20807;-59
2023/07/16 03:12:04;;;;;;;11.98;9.90;;;18.60;99.90;;;;;;4998579;28;20017;-58
2023/07/16 03:14:29;;;;;;;11.30;10.20;;;18.60;99.90;;;;;;4995898;28;20028;-60
2023/07/16 03:16:55;;;;;;;10.60;9.60;;;18.50;99.90;;;;;;4997281;28;20026;-58
2023/07/16 03:19:20;;;;;;;10.30;9.18;;;18.50;99.90;;;;;;4997172;28;20043;-57
2023/07/16 03:21:48;;;;;;;11.55;10.35;;;18.50;99.90;;;;;;4997786;28;20030;-59
2023/07/16 03:24:14;;;;;;;11.50;10.43;;;18.50;99.90;;;;;;4997644;28;20214;-58
2023/07/16 03:26:40;;;;;;;21.38;11.35;;;18.50;99.90;;;;;;4998035;28;20033;-58
2023/07/16 03:29:05;;;;;;;16.85;10.25;;;18.50;99.90;;;;;;4998857;28;20084;-58
2023/07/16 03:31:31;;;;;;;24.45;10.63;;;18.50;99.90;;;;;;4997887;28;20041;-59
2023/07/16 03:33:56;;;;;;;13.88;9.52;;;18.50;99.90;;;;;;4999745;28;20041;-58
2023/07/16 03:36:22;;;;;;;19.95;10.18;;;18.50;99.90;;;;;;4995980;28;20038;-58
2023/07/16 03:38:48;;;;;;;9.93;8.73;;;18.50;99.90;;;;;;4996241;28;20022;-59
2023/07/16 03:41:13;;;;;;;11.20;9.32;;;18.50;99.90;;;;;;4994892;28;20467;-58
2023/07/16 03:43:39;;;;;;;14.80;10.05;;;18.50;99.90;;;;;;4996345;28;20058;-58
2023/07/16 03:46:07;;;;;;;15.48;9.85;;;18.50;99.90;;;;;;4995324;28;20021;-58
2023/07/16 03:48:32;;;;;;;10.25;9.20;;;18.50;99.90;;;;;;4994695;28;20523;-59
2023/07/16 03:50:58;;;;;;;10.07;9.07;;;18.50;99.90;;;;;;4997520;28;20104;-59
2023/07/16 03:53:24;;;;;;;11.13;8.55;;;18.60;99.90;;;;;;4996399;28;20049;-59
2023/07/16 03:55:50;;;;;;;12.70;8.15;;;18.60;99.90;;;;;;5000875;28;20030;-59
2023/07/16 03:58:15;;;;;;;7.30;6.70;;;18.60;99.90;;;;;;4999787;28;20105;-59
2023/07/16 04:00:41;;;;;;;9.32;6.18;;;18.50;99.90;;;;;;4997525;28;20168;-59
2023/07/16 04:03:07;;;;;;;7.38;6.78;;;18.40;99.90;;;;;;4997963;28;20040;-59
2023/07/16 04:05:32;;;;;;;6.18;5.68;;;18.50;99.90;;;;;;4995639;28;20026;-59
2023/07/16 04:07:58;;;;;;;4.95;4.47;;;18.50;99.90;;;;;;4995175;28;20021;-59
2023/07/16 04:10:24;;;;;;;4.95;4.28;;;18.50;99.90;;;;;;4996452;28;20038;-59
2023/07/16 04:12:49;;;;;;;4.70;3.95;;;18.50;99.90;;;;;;4999374;28;20025;-59
2023/07/16 04:15:15;;;;;;;6.43;3.75;;;18.50;99.90;;;;;;4998670;28;20037;-58
2023/07/16 04:17:41;;;;;;;5.63;3.53;;;18.40;99.90;;;;;;4997129;28;20442;-58
2023/07/16 04:20:07;;;;;;;8.52;3.97;;;18.50;99.90;;;;;;4997683;28;20034;-59
2023/07/16 04:22:34;;;;;;;4.53;3.65;;;18.50;99.90;;;;;;4993386;28;20034;-58
2023/07/16 04:25:00;;;;;;;3.58;2.85;;;18.60;99.90;;;;;;4996220;28;20027;-58
2023/07/16 04:27:25;;;;;;;3.20;2.80;;;18.60;99.90;;;;;;4990128;28;20038;-58
2023/07/16 04:29:51;;;;;;;3.45;3.08;;;18.50;99.90;;;;;;4998940;28;20526;-58
2023/07/16 04:32:18;;;;;;;5.28;2.53;;;18.40;99.90;;;;;;4998374;28;20087;-59
2023/07/16 04:34:43;;;;;;;3.03;2.72;;;18.30;99.90;;;;;;4994574;28;21342;-60
2023/07/16 04:37:09;;;;;;;2.80;2.55;;;18.20;99.90;;;;;;4999049;28;20022;-59
2023/07/16 04:39:34;;;;;;;7.10;3.60;;;18.20;99.90;;;;;;4994764;28;20026;-59
2023/07/16 04:42:00;;;;;;;3.92;2.83;;;18.10;99.90;;;;;;4995707;28;20031;-57
2023/07/16 04:44:26;;;;;;;3.80;3.50;;;18.10;99.90;;;;;;4996786;28;20026;-58
2023/07/16 04:46:51;;;;;;;3.50;3.20;;;18.10;99.90;;;;;;4998785;28;20160;-59
2023/07/16 04:49:17;;;;;;;7.18;4.95;;;18.10;99.90;;;;;;4997037;28;20041;-58
2023/07/16 04:51:42;;;;;;;6.00;4.63;;;18.10;99.90;;;;;;4996741;28;20031;-59
2023/07/16 04:54:08;;;;;;;3.42;3.13;;;18.10;99.90;;;;;;4995430;28;20034;-60
2023/07/16 04:56:34;;;;;;;4.43;3.28;;;18.20;99.90;;;;;;4996646;28;20026;-57
2023/07/16 04:58:59;;;;;;;4.35;3.17;;;18.10;99.90;;;;;;4998780;28;20079;-59
2023/07/16 05:01:26;;;;;;;4.80;3.35;;;18.10;99.90;;;;;;4996294;28;20041;-60
2023/07/16 05:03:52;;;;;;;6.57;3.95;;;18.10;99.90;;;;;;4998548;28;20026;-58
2023/07/16 05:06:18;;;;;;;4.22;3.20;;;18.10;99.90;;;;;;4999111;28;20045;-60
2023/07/16 05:08:43;;;;;;;3.95;3.25;;;18.20;99.90;;;;;;4999279;28;20030;-58
2023/07/16 05:11:09;;;;;;;4.45;2.45;;;18.20;99.90;;;;;;4994951;28;20025;-58
2023/07/16 05:13:35;;;;;;;6.03;2.22;;;18.10;99.90;;;;;;4995821;28;20763;-59
2023/07/16 05:16:00;;;;;;;2.30;2.10;;;18.00;99.90;;;;;;4994020;28;20050;-56
2023/07/16 05:18:26;;;;;;;7.93;3.10;;;18.00;99.90;;;;;;4996827;28;20057;-58
2023/07/16 05:20:51;;;;;;;5.93;2.55;;;18.00;99.90;;;;;;4997988;28;20104;-60
2023/07/16 05:23:17;;;;;;;8.43;2.80;;;18.00;99.90;;;;;;5002313;28;20026;-58
2023/07/16 05:25:49;;;;;;;6.25;2.60;;;18.00;99.90;;;;;;4997797;28;20038;-57
2023/07/16 05:28:16;;;;;;;3.88;2.30;;;18.10;99.90;;;;;;5000854;28;20026;-58
2023/07/16 05:30:42;;;;;;;8.55;2.58;;;18.20;99.90;;;;;;4998849;28;20796;-59
2023/07/16 05:33:08;;;;;;;22.83;3.65;;;18.30;99.90;;;;;;4999396;28;20109;-59
2023/07/16 05:35:34;;;;;;;6.15;2.75;;;18.30;99.90;;;;;;4999815;28;20025;-60
2023/07/16 05:37:59;;;;;;;3.95;2.15;;;18.40;99.90;;;;;;4996840;28;20019;-59
2023/07/16 05:40:25;;;;;;;7.65;2.70;;;18.30;99.90;;;;;;4998576;28;20562;-60
2023/07/16 05:42:51;;;;;;;3.10;1.90;;;18.20;99.90;;;;;;4998641;28;20034;-59
2023/07/16 05:45:16;;;;;;;3.53;1.85;;;18.20;99.90;;;;;;4999894;28;20042;-58
2023/07/16 05:47:42;;;;;;;8.05;1.98;;;18.20;99.90;;;;;;4995950;28;20146;-58
2023/07/16 05:50:08;;;;;;;4.45;2.08;;;18.30;99.90;;;;;;5002121;28;20029;-59
2023/07/16 05:52:34;;;;;;;4.40;1.90;;;18.30;99.90;;;;;;5000006;28;20491;-57
2023/07/16 05:54:59;;;;;;;4.30;2.00;;;18.40;99.90;;;;;;4998622;28;20033;-57
2023/07/16 05:57:25;;;;;;;6.70;2.33;;;18.40;99.90;;;;;;5001475;28;20153;-59
2023/07/16 05:59:50;;;;;;;3.90;1.60;;;18.40;99.90;;;;;;5000327;28;20479;-59
2023/07/16 06:02:16;;;;;;;2.33;1.58;;;18.40;99.90;;;;;;5002745;28;20033;-59
2023/07/16 06:04:42;;;;;;;5.00;2.35;;;18.40;99.90;;;;;;5002743;28;20775;-60
2023/07/16 06:07:07;;;;;;;4.47;1.90;;;18.40;99.90;;;;;;5000444;28;20027;-60
2023/07/16 06:09:33;;;;;;;6.05;2.33;;;18.50;99.90;;;;;;4996563;28;20022;-60
2023/07/16 06:11:59;;;;;;;5.55;2.05;;;18.50;99.90;;;;;;4997404;28;20092;-59
2023/07/16 06:14:24;;;;;;;2.47;1.83;;;18.60;99.90;;;;;;4999182;28;20463;-59
2023/07/16 06:16:50;;;;;;;1.98;1.80;;;18.70;99.90;;;;;;5001354;28;20931;-59
2023/07/16 06:19:16;;;;;;;4.03;1.85;;;18.80;99.90;;;;;;4999346;28;20043;-59
2023/07/16 06:21:41;;;;;;;5.03;2.05;;;18.80;99.90;;;;;;5000103;28;20079;-60
2023/07/16 06:24:07;;;;;;;10.95;1.70;;;18.80;99.90;;;;;;4998079;28;20084;-60
2023/07/16 06:26:32;;;;;;;3.63;1.65;;;18.80;99.90;;;;;;5000542;28;20041;-58
2023/07/16 06:28:58;;;;;;;4.28;1.98;;;18.70;99.90;;;;;;4998226;28;20034;-59
2023/07/16 06:31:24;;;;;;;3.33;1.85;;;18.60;99.90;;;;;;4997939;28;20038;-60
2023/07/16 06:33:50;;;;;;;14.52;2.80;;;18.60;99.90;;;;;;5000075;28;20030;-59
2023/07/16 06:36:16;;;;;;;12.27;2.20;;;18.60;99.90;;;;;;4996559;28;20022;-59
2023/07/16 06:38:42;;;;;;;3.30;1.60;;;18.70;99.90;;;;;;4996203;28;20026;-59
2023/07/16 06:41:07;;;;;;;2.15;1.77;;;18.80;99.90;;;;;;5003087;28;20033;-59
2023/07/16 06:43:33;;;;;;;4.90;2.25;;;18.80;99.90;;;;;;4999364;28;20506;-59
2023/07/16 06:45:59;;;;;;;10.20;1.77;;;18.70;99.90;;;;;;4998581;28;20108;-59
2023/07/16 06:48:24;;;;;;;3.38;1.83;;;18.70;99.90;;;;;;5000661;28;20034;-60
2023/07/16 06:50:51;;;;;;;6.20;1.85;;;18.70;99.90;;;;;;4998812;28;20042;-60
2023/07/16 06:53:16;;;;;;;2.92;1.83;;;18.80;99.90;;;;;;5000683;28;20026;-60
2023/07/16 06:55:42;;;;;;;3.10;1.60;;;19.00;99.90;;;;;;4995594;28;20403;-61
2023/07/16 06:58:11;;;;;;;3.28;1.95;;;19.00;99.90;;;;;;4992818;28;20169;-60
2023/07/16 07:00:37;;;;;;;4.03;1.70;;;19.10;99.90;;;;;;4995048;28;20459;-59
2023/07/16 07:03:03;;;;;;;2.85;1.65;;;19.20;99.90;;;;;;4995716;28;20069;-60
2023/07/16 07:05:28;;;;;;;5.30;1.35;;;19.20;99.90;;;;;;4993591;28;20046;-59
2023/07/16 07:07:54;;;;;;;3.65;1.48;;;19.30;99.90;;;;;;4995104;28;20018;-58
2023/07/16 07:10:20;;;;;;;3.97;1.70;;;19.50;99.90;;;;;;4997281;28;20045;-59
2023/07/16 07:12:46;;;;;;;3.20;1.52;;;19.70;99.90;;;;;;4997436;28;20524;-59
2023/07/16 07:15:11;;;;;;;4.45;1.55;;;19.80;99.90;;;;;;4999028;28;20034;-59
2023/07/16 07:17:37;;;;;;;5.53;1.83;;;19.60;99.90;;;;;;4998327;28;20030;-59
2023/07/16 07:20:03;;;;;;;4.03;1.48;;;19.50;99.90;;;;;;4998725;28;20486;-60
2023/07/16 07:22:29;;;;;;;3.05;1.60;;;19.30;99.90;;;;;;4997838;28;20086;-59
2023/07/16 07:24:55;;;;;;;4.28;1.95;;;19.40;99.90;;;;;;4998242;28;20031;-58
2023/07/16 07:27:20;;;;;;;4.75;2.13;;;19.40;99.90;;;;;;4999265;28;20403;-60
2023/07/16 07:29:46;;;;;;;7.97;1.95;;;19.40;99.90;;;;;;4999689;28;20038;-59
2023/07/16 07:32:12;;;;;;;4.13;2.03;;;19.30;99.90;;;;;;5001496;28;20543;-58
2023/07/16 07:34:39;;;;;;;6.50;1.70;;;19.30;99.90;;;;;;5001044;28;20121;-60
2023/07/16 07:37:05;;;;;;;3.00;1.80;;;19.30;99.90;;;;;;4996083;28;20570;-58
2023/07/16 07:39:31;;;;;;;5.60;1.92;;;19.40;99.90;;;;;;4995778;28;20058;-58
2023/07/16 07:41:56;;;;;;;2.70;1.63;;;19.40;99.90;;;;;;4997001;28;20058;-59
2023/07/16 07:44:22;;;;;;;6.22;2.17;;;19.60;99.90;;;;;;4999419;28;20030;-60
2023/07/16 07:46:47;;;;;;;4.03;1.83;;;19.80;99.90;;;;;;4997453;28;20014;-58
2023/07/16 07:49:13;;;;;;;5.88;1.90;;;19.90;99.90;;;;;;4993109;28;20026;-61
2023/07/16 07:51:39;;;;;;;2.92;1.92;;;19.90;99.90;;;;;;4998089;28;20021;-58
2023/07/16 07:54:04;;;;;;;4.57;1.55;;;19.90;99.90;;;;;;4994453;28;20029;-57
2023/07/16 07:56:30;;;;;;;3.78;1.80;;;20.00;99.90;;;;;;4997652;28;20121;-57
2023/07/16 07:58:56;;;;;;;3.97;1.67;;;20.10;99.90;;;;;;4998953;28;20418;-61
2023/07/16 08:01:21;;;;;;;5.85;2.22;;;20.10;99.90;;;;;;4998599;28;20121;-59
2023/07/16 08:03:47;;;;;;;3.40;1.88;;;20.10;99.90;;;;;;4998376;28;20038;-60
2023/07/16 08:06:13;;;;;;;4.05;1.95;;;20.10;99.90;;;;;;4995274;28;20018;-57
2023/07/16 08:08:38;;;;;;;5.82;2.03;;;20.10;99.90;;;;;;4992363;28;20026;-59
2023/07/16 08:11:04;;;;;;;4.63;1.75;;;20.10;99.90;;;;;;4996587;28;20101;-59
2023/07/16 08:13:29;;;;;;;2.75;1.70;;;20.10;99.90;;;;;;4994733;28;20027;-58
2023/07/16 08:15:55;;;;;;;4.72;2.28;;;20.10;99.90;;;;;;4993939;28;20045;-59
2023/07/16 08:18:20;;;;;;;5.72;1.85;;;20.20;99.90;;;;;;4996653;28;20043;-61
2023/07/16 08:20:47;;;;;;;3.03;1.42;;;20.30;99.90;;;;;;5000862;28;20041;-58
2023/07/16 08:23:13;;;;;;;8.30;2.13;;;20.30;99.90;;;;;;4996652;28;20384;-59
2023/07/16 08:25:39;;;;;;;2.85;1.75;;;20.30;99.90;;;;;;4996389;28;20030;-59
2023/07/16 08:28:04;;;;;;;10.88;1.77;;;20.40;99.90;;;;;;4996526;28;20095;-59
2023/07/16 08:30:32;;;;;;;5.43;1.60;;;20.60;99.90;;;;;;4998856;28;20022;-60
2023/07/16 08:32:57;;;;;;;5.03;2.00;;;20.90;99.90;;;;;;4998374;28;20041;-58
2023/07/16 08:35:23;;;;;;;12.10;1.77;;;21.10;99.90;;;;;;4996382;28;20037;-59
2023/07/16 08:37:48;;;;;;;5.55;1.90;;;21.10;99.90;;;;;;4998499;28;20060;-58
2023/07/16 08:40:14;;;;;;;5.13;1.95;;;20.90;99.90;;;;;;4997862;28;20062;-59
2023/07/16 08:42:43;;;;;;;5.18;1.67;;;20.70;99.90;;;;;;4996614;28;20091;-58
2023/07/16 08:45:14;;;;;;;5.70;1.80;;;20.60;99.90;;;;;;4995742;28;20037;-58
2023/07/16 08:47:40;;;;;;;7.13;1.40;;;20.50;99.90;;;;;;4997099;28;20038;-58
2023/07/16 08:50:06;;;;;;;2.13;1.40;;;20.70;99.90;;;;;;5002800;28;20083;-59
2023/07/16 08:52:32;;;;;;;5.10;1.67;;;21.00;99.90;;;;;;4998192;28;20511;-60
2023/07/16 08:54:57;;;;;;;5.10;1.30;;;21.30;99.90;;;;;;4997257;28;20030;-60
2023/07/16 08:57:23;;;;;;;4.65;1.95;;;21.30;99.90;;;;;;4997379;28;20042;-58
2023/07/16 08:59:50;;;;;;;2.95;1.65;;;21.40;99.90;;;;;;4996548;28;20502;-59
2023/07/16 09:02:18;;;;;;;4.78;1.50;;;21.50;99.90;;;;;;4992682;28;20117;-60
2023/07/16 09:04:46;;;;;;;3.72;1.40;;;21.50;99.90;;;;;;4996294;28;20050;-59
2023/07/16 09:07:11;;;;;;;12.73;1.60;;;21.50;99.90;;;;;;4994262;28;20129;-60
2023/07/16 09:09:37;;;;;;;3.38;1.73;;;21.30;99.90;;;;;;4992813;28;20141;-60
2023/07/16 09:12:03;;;;;;;6.10;1.45;;;21.10;99.90;;;;;;4996211;28;20033;-57
2023/07/16 09:14:28;;;;;;;3.30;1.70;;;20.80;99.90;;;;;;4995839;28;20026;-60
2023/07/16 09:16:54;;;;;;;6.07;1.88;;;20.80;99.90;;;;;;4999845;28;20018;-59
2023/07/16 09:19:21;;;;;;;5.40;1.80;;;20.80;99.90;;;;;;4993649;28;20053;-59
2023/07/16 09:21:50;;;;;;;4.25;1.48;;;21.00;99.90;;;;;;5000058;28;20997;-57
2023/07/16 09:24:17;;;;;;;3.67;1.70;;;21.20;99.90;;;;;;4996884;28;20030;-60
2023/07/16 09:26:53;;;;;;;2.38;1.25;;;21.40;99.90;;;;;;4998102;28;20076;-57
2023/07/16 09:29:19;;;;;;;4.63;1.90;;;21.70;99.90;;;;;;4998117;28;20037;-59
2023/07/16 09:31:55;;;;;;;5.22;1.58;;;21.80;99.90;;;;;;5002293;28;20049;-58
2023/07/16 09:34:21;;;;;;;3.45;1.40;;;22.10;99.90;;;;;;4979993;28;20050;-61
2023/07/16 09:36:49;;;;;;;4.78;1.50;;;22.30;99.90;;;;;;4976059;28;20031;-60
2023/07/16 09:39:18;;;;;;;3.53;1.30;;;22.50;99.90;;;;;;4974461;28;20673;-58
2023/07/16 09:41:44;;;;;;;6.55;1.10;;;22.80;99.90;;;;;;4973587;28;20506;-57
2023/07/16 09:44:11;;;;;;;6.97;1.20;;;23.10;99.90;;;;;;4977305;28;20035;-59
2023/07/16 09:46:37;;;;;;;5.93;1.40;;;22.90;99.90;;;;;;4977052;28;20038;-59
2023/07/16 09:49:02;;;;;;;6.15;1.40;;;22.60;99.90;;;;;;4975267;28;20022;-57
2023/07/16 09:51:32;;;;;;;3.20;1.40;;;22.30;99.90;;;;;;4977385;28;20562;-56
2023/07/16 09:54:01;;;;;;;3.60;1.20;;;22.30;99.90;;;;;;4976817;28;20030;-56
2023/07/16 09:56:39;;;;;;;3.65;1.55;;;22.30;99.90;;;;;;4975766;28;20491;-59
2023/07/16 09:59:16;;;;;;;3.67;1.27;;;22.40;99.90;;;;;;4975823;28;20058;-58
2023/07/16 10:01:42;;;;;;;6.05;1.58;;;22.20;99.90;;;;;;4976711;28;20031;-58
2023/07/16 10:04:16;;;;;;;6.68;1.60;;;22.10;99.90;;;;;;4975056;28;20034;-59
2023/07/16 10:07:00;;;;;;;4.60;1.70;;;22.20;99.90;;;;;;4978876;28;20046;-58
2023/07/16 10:09:37;;;;;;;5.00;1.60;;;22.50;99.90;;;;;;4978198;28;20475;-57
2023/07/16 10:12:19;;;;;;;2.67;1.33;;;22.80;99.90;;;;;;4978605;28;20070;-57
2023/07/16 10:14:50;;;;;;;2.42;1.20;;;22.80;99.90;;;;;;4977649;28;20027;-57
2023/07/16 10:17:22;;;;;;;;;;;22.70;99.90;;;;;;4980544;28;20030;-56
2023/07/16 10:19:59;;;;;;;6.78;1.50;;;22.60;99.90;;;;;;4980735;28;19976;-57
2023/07/16 10:22:35;;;;;;;4.05;1.55;;;22.60;99.90;;;;;;4975730;28;20117;-57
2023/07/16 10:25:02;;;;;;;2.97;1.40;;;22.80;99.90;;;;;;4979974;28;20045;-59
2023/07/16 10:27:33;;;;;;;5.78;1.27;;;22.90;99.90;;;;;;4978351;28;20109;-58
2023/07/16 10:30:04;;;;;;;5.40;1.83;;;22.90;99.90;;;;;;4978744;28;20023;-59
2023/07/16 10:32:32;;;;;;;4.10;1.52;;;23.10;99.90;;;;;;4983107;28;20019;-58
2023/07/16 10:34:58;;;;;;;4.50;1.50;;;23.10;99.90;;;;;;4982443;28;20116;-60
2023/07/16 10:37:25;;;;;;;4.15;1.38;;;23.10;99.90;;;;;;4977096;28;20030;-58
2023/07/16 10:39:55;;;;;;;7.03;1.58;;;23.30;96.80;;;;;;4977471;28;20045;-58
2023/07/16 10:42:23;;;;;;;2.88;1.30;;;23.40;99.90;;;;;;4979459;28;20047;-58
2023/07/16 10:44:51;;;;;;;5.32;1.25;;;23.20;92.80;;;;;;4977164;28;20043;-59
2023/07/16 10:47:29;;;;;;;2.85;1.23;;;23.00;96.30;;;;;;4975459;28;20026;-59
2023/07/16 10:49:54;;;;;;;4.65;1.50;;;23.00;99.90;;;;;;4977955;28;20121;-56
2023/07/16 10:52:21;;;;;;;5.00;1.40;;;22.90;96.10;;;;;;4977430;28;20662;-57
2023/07/16 10:54:49;;;;;;;6.65;1.60;;;22.80;99.90;;;;;;4980071;28;20093;-58
2023/07/16 10:57:16;;;;;;;4.57;1.23;;;23.00;99.90;;;;;;4978476;28;20027;-57
2023/07/16 10:59:43;;;;;;;5.78;2.00;;;23.20;99.90;;;;;;4979263;28;20084;-56
2023/07/16 11:02:12;;;;;;;6.72;1.70;;;23.50;99.90;;;;;;4979039;28;20022;-57
2023/07/16 11:04:37;;;;;;;3.70;1.35;;;23.80;99.90;;;;;;4977123;28;20074;-59
2023/07/16 11:07:08;;;;;;;4.82;1.40;;;23.80;95.10;;;;;;4975591;28;20050;-57
2023/07/16 11:09:40;;;;;;;2.33;1.42;;;23.70;93.40;;;;;;4980565;28;20023;-58
2023/07/16 11:12:07;;;;;;;3.60;1.40;;;23.70;98.30;;;;;;4979043;28;20057;-58
2023/07/16 11:14:34;;;;;;;3.85;1.20;;;23.80;93.20;;;;;;4978671;28;20053;-57
2023/07/16 11:17:08;;;;;;;4.15;1.30;;;23.90;99.90;;;;;;4977913;28;20087;-58
2023/07/16 11:19:34;;;;;;;3.05;1.60;;;24.20;92.90;;;;;;4981200;28;20061;-58
2023/07/16 11:22:02;;;;;;;3.13;1.30;;;24.20;90.10;;;;;;4979656;28;20042;-58
2023/07/16 11:24:28;;;;;;;2.47;1.33;;;24.10;89.00;;;;;;4978876;28;20038;-56
2023/07/16 11:26:59;;;;;;;5.82;1.55;;;24.10;81.00;;;;;;4979221;28;20396;-57
2023/07/16 11:29:25;;;;;;;6.60;1.52;;;24.20;89.20;;;;;;4979614;28;20110;-57
2023/07/16 11:31:52;;;;;;;4.03;1.40;;;24.50;90.40;;;;;;4978965;28;20105;-59
2023/07/16 11:34:21;;;;;;;5.30;1.55;;;24.80;83.40;;;;;;4978881;28;20027;-59
2023/07/16 11:36:49;;;;;;;3.25;1.40;;;24.90;81.50;;;;;;4978343;28;20023;-58
2023/07/16 11:39:15;;;;;;;3.88;1.30;;;25.00;76.60;;;;;;4978031;28;20102;-56
2023/07/16 11:41:41;;;;;;;2.30;1.42;;;25.10;75.40;;;;;;4978147;28;20750;-58
2023/07/16 11:44:10;;;;;;;3.00;1.27;;;25.10;73.10;;;;;;4977444;28;20026;-58
2023/07/16 11:46:36;;;;;;;2.08;1.13;;;25.00;74.70;;;;;;4976073;28;20406;-57
2023/07/16 11:49:03;;;;;;;4.57;1.17;;;24.90;76.40;;;;;;4975890;28;20026;-59
2023/07/16 11:51:29;;;;;;;6.95;1.88;;;25.00;76.10;;;;;;4978878;28;20030;-58
2023/07/16 11:53:57;;;;;;;2.28;1.30;;;25.30;72.50;;;;;;4977579;28;20476;-59
2023/07/16 11:56:23;;;;;;;3.95;1.42;;;25.40;74.50;;;;;;4975989;28;20018;-58
2023/07/16 11:58:50;;;;;;;7.53;1.42;;;25.30;72.70;;;;;;4983546;28;20023;-59
2023/07/16 12:01:15;;;;;;;2.90;1.40;;;25.20;73.30;;;;;;4976258;28;20026;-59
2023/07/16 12:03:41;;;;;;;2.05;1.10;;;24.90;74.40;;;;;;4978124;28;20038;-58
2023/07/16 12:06:08;;;;;;;3.45;1.48;;;24.90;74.80;;;;;;4977792;28;20568;-60
2023/07/16 12:08:33;;;;;;;3.80;1.30;;;25.00;74.50;;;;;;4979704;28;20098;-58
2023/07/16 12:10:59;;;;;;;2.13;1.40;;;25.00;74.10;;;;;;4976631;28;20098;-58
2023/07/16 12:13:25;;;;;;;2.80;1.40;;;24.90;74.10;;;;;;4976397;28;20491;-58
2023/07/16 12:15:50;;;;;;;3.15;1.25;;;25.00;76.90;;;;;;4979233;28;20033;-58
2023/07/16 12:18:16;;;;;;;4.75;1.40;;;25.20;80.30;;;;;;4976874;28;20097;-60
2023/07/16 12:20:41;;;;;;;3.97;1.58;;;25.40;76.10;;;;;;4979207;28;20054;-60
2023/07/16 12:23:07;;;;;;;2.33;1.55;;;25.40;73.70;;;;;;4979984;28;20390;-58
2023/07/16 12:25:33;;;;;;;3.88;1.35;;;25.20;72.30;;;;;;4976269;28;20022;-58
2023/07/16 12:28:01;;;;;;;2.75;1.20;;;24.90;76.60;;;;;;4976887;28;20370;-59
2023/07/16 12:30:27;;;;;;;2.63;1.50;;;24.80;75.10;;;;;;4976965;28;20045;-58
2023/07/16 12:32:53;;;;;;;2.63;1.27;;;24.70;72.30;;;;;;4977374;28;20022;-58
2023/07/16 12:35:18;;;;;;;3.58;1.50;;;24.60;79.40;;;;;;4978202;28;20023;-60
2023/07/16 12:37:44;;;;;;;2.08;1.50;;;24.70;73.40;;;;;;4975809;28;20027;-60
2023/07/16 12:40:10;;;;;;;2.22;1.20;;;24.60;75.40;;;;;;4977695;28;20027;-58
2023/07/16 12:42:35;;;;;;;3.25;1.40;;;24.60;78.60;;;;;;4975159;28;20027;-57